Time;durP1;ratioP1;P1;durP2;ratioP2;P2;SDS_P1;SDS_P2;PMS_P1;PMS_P2;Temp;Humidity;BMP_temperature;BMP_pressure;BME280_temperature;BME280_humidity;BME280_pressure;Samples;Min_cycle;Max_cycle;Signal;HPM_P1;HPM_P2
2022/01/11 00:00:10;;;;;;;29.48;19.05;;;;;;;;;;6221604;23;20099;-94
2022/01/11 00:02:41;;;;;;;38.38;20.38;;;;;;;;;;6222661;23;20443;-94
2022/01/11 00:05:08;;;;;;;34.05;19.35;;;;;;;;;;6247329;23;20051;-93
2022/01/11 00:07:35;;;;;;;40.40;19.75;;;;;;;;;;6197168;23;20048;-95
2022/01/11 00:10:06;;;;;;;39.88;20.30;;;;;;;;;;6221962;23;20023;-95
2022/01/11 00:12:32;;;;;;;32.28;18.50;;;;;;;;;;6222573;23;20016;-95
2022/01/11 00:14:58;;;;;;;39.25;18.25;;;;;;;;;;6223049;23;20016;-95
2022/01/11 00:17:24;;;;;;;34.38;20.48;;;;;;;;;;6222170;23;20023;-95
2022/01/11 00:19:50;;;;;;;36.42;20.58;;;;;;;;;;6248078;23;20020;-94
2022/01/11 00:22:19;;;;;;;34.85;19.27;;;;;;;;;;6222171;23;20016;-95
2022/01/11 00:24:45;;;;;;;30.65;19.67;;;;;;;;;;6221450;23;20020;-94
2022/01/11 00:27:11;;;;;;;31.23;19.00;;;;;;;;;;6249487;23;20016;-94
2022/01/11 00:29:45;;;;;;;30.85;19.00;;;;;;;;;;6249665;23;20461;-94
2022/01/11 00:32:15;;;;;;;27.20;18.23;;;;;;;;;;6224490;23;20018;-96
2022/01/11 00:34:50;;;;;;;30.42;18.85;;;;;;;;;;6224758;23;20024;-96
2022/01/11 00:37:16;;;;;;;31.30;17.33;;;;;;;;;;6224026;23;20012;-95
2022/01/11 00:39:45;;;;;;;32.95;19.50;;;;;;;;;;6223492;23;20016;-96
2022/01/11 00:42:12;;;;;;;30.00;19.20;;;;;;;;;;6223943;23;20016;-95
2022/01/11 00:44:38;;;;;;;28.67;18.40;;;;;;;;;;6225045;23;20016;-96
2022/01/11 00:47:04;;;;;;;26.58;17.48;;;;;;;;;;6249594;23;20026;-95
2022/01/11 00:49:33;;;;;;;29.17;18.48;;;;;;;;;;6222326;23;20043;-91
2022/01/11 00:51:59;;;;;;;28.92;19.35;;;;;;;;;;6247575;23;20031;-91
2022/01/11 00:54:25;;;;;;;28.73;17.23;;;;;;;;;;6223175;23;20012;-91
2022/01/11 00:56:51;;;;;;;32.33;17.92;;;;;;;;;;6223105;23;20027;-90
2022/01/11 00:59:17;;;;;;;29.85;17.77;;;;;;;;;;6222666;23;20346;-91
2022/01/11 01:01:43;;;;;;;31.25;17.67;;;;;;;;;;6222548;23;20016;-91
2022/01/11 01:04:09;;;;;;;26.17;17.33;;;;;;;;;;6222581;23;20067;-90
2022/01/11 01:06:39;;;;;;;30.98;18.63;;;;;;;;;;6222308;23;20462;-90
2022/01/11 01:09:05;;;;;;;29.08;18.05;;;;;;;;;;6222588;23;20012;-90
2022/01/11 01:11:31;;;;;;;24.83;15.85;;;;;;;;;;6247266;23;20022;-91
2022/01/11 01:13:57;;;;;;;26.42;16.88;;;;;;;;;;6222339;23;20016;-90
2022/01/11 01:16:26;;;;;;;33.28;18.58;;;;;;;;;;6222458;23;20022;-90
2022/01/11 01:18:52;;;;;;;28.02;17.30;;;;;;;;;;6223980;23;20020;-95
2022/01/11 01:21:19;;;;;;;31.08;18.92;;;;;;;;;;6225170;23;20385;-95
2022/01/11 01:23:45;;;;;;;26.20;17.70;;;;;;;;;;6224696;23;20016;-94
2022/01/11 01:26:11;;;;;;;29.95;17.25;;;;;;;;;;6249422;23;20012;-95
2022/01/11 01:28:38;;;;;;;23.05;16.60;;;;;;;;;;6223303;23;20323;-96
2022/01/11 01:31:04;;;;;;;25.98;16.30;;;;;;;;;;6223788;23;20008;-95
2022/01/11 01:33:32;;;;;;;28.63;17.13;;;;;;;;;;6224225;23;20446;-95
2022/01/11 01:36:02;;;;;;;26.15;17.88;;;;;;;;;;6224353;23;20019;-94
2022/01/11 01:38:28;;;;;;;29.75;16.98;;;;;;;;;;6222636;23;20465;-93
2022/01/11 01:41:01;;;;;;;28.30;17.92;;;;;;;;;;6223116;23;20016;-94
2022/01/11 01:43:27;;;;;;;27.52;16.17;;;;;;;;;;6248494;23;20020;-95
2022/01/11 01:45:55;;;;;;;31.88;16.98;;;;;;;;;;6223240;23;20353;-95
2022/01/11 01:48:21;;;;;;;28.92;17.33;;;;;;;;;;6223195;23;20047;-96
2022/01/11 01:50:48;;;;;;;27.90;17.48;;;;;;;;;;6222717;23;20055;-96
2022/01/11 01:53:14;;;;;;;25.50;17.63;;;;;;;;;;6247879;23;20370;-95
2022/01/11 01:55:44;;;;;;;29.73;18.15;;;;;;;;;;6248929;23;20039;-96
2022/01/11 01:58:11;;;;;;;35.65;18.13;;;;;;;;;;6223240;23;20012;-94
2022/01/11 02:00:42;;;;;;;37.67;19.15;;;;;;;;;;6223258;23;20054;-93
2022/01/11 02:03:11;;;;;;;37.38;19.08;;;;;;;;;;6223347;23;20095;-93
2022/01/11 02:05:37;;;;;;;31.13;18.92;;;;;;;;;;6223390;23;20016;-93
2022/01/11 02:08:03;;;;;;;28.80;18.10;;;;;;;;;;6223344;23;20000;-96
2022/01/11 02:10:29;;;;;;;30.83;17.42;;;;;;;;;;6223376;23;20028;-93
2022/01/11 02:12:56;;;;;;;35.80;20.42;;;;;;;;;;6223319;23;20016;-95
2022/01/11 02:15:22;;;;;;;29.45;17.42;;;;;;;;;;6222577;23;20073;-95
2022/01/11 02:17:48;;;;;;;32.28;18.45;;;;;;;;;;6222887;23;20035;-95
2022/01/11 02:20:14;;;;;;;35.38;19.98;;;;;;;;;;6224103;23;20020;-94
2022/01/11 02:22:40;;;;;;;32.05;19.55;;;;;;;;;;6224263;23;20035;-93
2022/01/11 02:25:07;;;;;;;32.60;17.17;;;;;;;;;;6222970;23;20016;-94
2022/01/11 02:27:33;;;;;;;31.38;18.33;;;;;;;;;;6223461;23;20020;-93
2022/01/11 02:29:59;;;;;;;34.85;19.17;;;;;;;;;;6223642;23;20020;-94
2022/01/11 02:32:25;;;;;;;30.67;17.50;;;;;;;;;;6223798;23;20022;-93
2022/01/11 02:34:51;;;;;;;43.10;19.48;;;;;;;;;;6222176;23;20016;-94
2022/01/11 02:37:17;;;;;;;34.67;19.08;;;;;;;;;;6248746;23;20016;-93
2022/01/11 02:39:45;;;;;;;31.80;18.92;;;;;;;;;;6223668;23;20094;-93
2022/01/11 02:42:11;;;;;;;36.50;18.67;;;;;;;;;;6223122;23;20069;-93
2022/01/11 02:44:38;;;;;;;40.15;20.02;;;;;;;;;;6248573;23;20176;-93
2022/01/11 02:47:04;;;;;;;31.65;18.08;;;;;;;;;;6222893;22;20016;-95
2022/01/11 02:49:32;;;;;;;36.25;18.85;;;;;;;;;;6248006;23;20027;-95
2022/01/11 02:51:58;;;;;;;39.58;18.35;;;;;;;;;;6223411;23;20099;-95
2022/01/11 02:54:24;;;;;;;40.17;19.48;;;;;;;;;;6222750;23;20012;-96
2022/01/11 02:56:51;;;;;;;37.85;18.98;;;;;;;;;;6223286;23;20016;-96
2022/01/11 02:59:17;;;;;;;40.78;20.60;;;;;;;;;;6224039;23;20016;-94
2022/01/11 03:01:43;;;;;;;37.58;20.98;;;;;;;;;;6223083;23;20480;-95
2022/01/11 03:04:09;;;;;;;42.15;19.48;;;;;;;;;;6222748;23;20062;-95
2022/01/11 03:06:35;;;;;;;46.30;20.15;;;;;;;;;;6223592;23;20426;-95
2022/01/11 03:09:01;;;;;;;40.70;20.58;;;;;;;;;;6222317;23;20027;-96
2022/01/11 03:11:32;;;;;;;42.08;20.88;;;;;;;;;;6221866;23;20020;-95
2022/01/11 03:13:59;;;;;;;47.30;20.35;;;;;;;;;;6222507;23;20020;-96
2022/01/11 03:16:25;;;;;;;48.05;21.13;;;;;;;;;;6223439;23;20074;-94
2022/01/11 03:18:51;;;;;;;37.67;21.15;;;;;;;;;;6223810;23;20023;-95
2022/01/11 03:21:17;;;;;;;47.95;22.02;;;;;;;;;;6225695;23;20016;-95
2022/01/11 03:23:43;;;;;;;46.65;20.10;;;;;;;;;;6227872;23;20501;-95
2022/01/11 03:26:09;;;;;;;41.13;22.17;;;;;;;;;;6255515;23;20043;-94
2022/01/11 03:28:36;;;;;;;34.17;21.77;;;;;;;;;;6225816;23;20020;-96
2022/01/11 03:31:02;;;;;;;43.40;22.55;;;;;;;;;;6227834;23;20019;-94
2022/01/11 03:33:28;;;;;;;38.92;21.20;;;;;;;;;;6227101;23;20024;-95
2022/01/11 03:35:55;;;;;;;40.67;23.40;;;;;;;;;;6220538;23;20008;-91
2022/01/11 03:38:22;;;;;;;47.08;22.52;;;;;;;;;;6245733;23;20018;-91
2022/01/11 03:40:48;;;;;;;42.42;20.60;;;;;;;;;;6220589;23;20020;-91
2022/01/11 03:43:14;;;;;;;38.63;20.00;;;;;;;;;;6220670;23;20315;-90
2022/01/11 03:45:40;;;;;;;41.53;23.20;;;;;;;;;;6220906;23;20025;-91
2022/01/11 03:48:07;;;;;;;49.63;22.92;;;;;;;;;;6245634;22;20378;-90
2022/01/11 03:50:33;;;;;;;49.10;24.15;;;;;;;;;;6220547;23;20020;-91
2022/01/11 03:53:08;;;;;;;46.45;24.13;;;;;;;;;;6220884;23;20031;-92
2022/01/11 03:58:26;;;;;;;43.13;20.13;;;;;;;;;;6245887;23;20020;-90
2022/01/11 04:00:52;;;;;;;50.25;26.17;;;;;;;;;;6220269;23;20078;-91
2022/01/11 04:03:18;;;;;;;49.22;22.63;;;;;;;;;;6220425;23;20043;-92
2022/01/11 04:05:45;;;;;;;58.30;25.33;;;;;;;;;;6222057;23;20020;-92
2022/01/11 04:08:12;;;;;;;41.45;23.73;;;;;;;;;;6220601;23;20073;-90
2022/01/11 04:10:38;;;;;;;44.50;21.98;;;;;;;;;;6222161;23;20040;-91
2022/01/11 04:13:04;;;;;;;40.97;22.85;;;;;;;;;;6220792;23;20335;-91
2022/01/11 04:15:30;;;;;;;47.67;24.58;;;;;;;;;;6221958;23;20422;-91
2022/01/11 04:17:56;;;;;;;49.42;25.77;;;;;;;;;;6220972;23;20146;-90
2022/01/11 04:20:22;;;;;;;52.60;22.50;;;;;;;;;;6221040;23;20016;-91
2022/01/11 04:22:49;;;;;;;59.40;23.13;;;;;;;;;;6220318;23;20016;-92
2022/01/11 04:25:15;;;;;;;53.95;25.25;;;;;;;;;;6220664;23;20051;-92
2022/01/11 04:27:41;;;;;;;50.55;23.95;;;;;;;;;;6246063;23;20516;-92
2022/01/11 04:30:08;;;;;;;53.85;25.60;;;;;;;;;;6228289;23;20020;-91
2022/01/11 04:32:34;;;;;;;55.80;25.35;;;;;;;;;;6227608;23;20012;-91
2022/01/11 04:35:00;;;;;;;55.75;26.15;;;;;;;;;;6230056;23;20020;-92
2022/01/11 04:37:26;;;;;;;49.75;24.15;;;;;;;;;;6225204;23;20017;-93
2022/01/11 04:39:52;;;;;;;41.92;23.35;;;;;;;;;;6219840;23;20042;-92
2022/01/11 04:42:18;;;;;;;44.05;20.55;;;;;;;;;;6222219;23;20472;-92
2022/01/11 04:44:44;;;;;;;49.00;23.38;;;;;;;;;;6227515;23;20031;-94
2022/01/11 04:47:10;;;;;;;47.17;23.83;;;;;;;;;;6221573;23;20345;-92
2022/01/11 04:49:36;;;;;;;51.58;24.83;;;;;;;;;;6220981;23;20370;-92
2022/01/11 04:52:03;;;;;;;45.22;22.80;;;;;;;;;;6220453;23;20024;-92
2022/01/11 04:54:29;;;;;;;53.92;25.23;;;;;;;;;;6232151;22;20349;-93
2022/01/11 04:56:55;;;;;;;42.65;23.20;;;;;;;;;;6252598;22;20031;-92
2022/01/11 04:59:22;;;;;;;42.60;21.58;;;;;;;;;;6250753;22;20482;-92
2022/01/11 05:01:48;;;;;;;47.53;23.13;;;;;;;;;;6276234;22;20047;-92
2022/01/11 05:04:14;;;;;;;49.53;23.10;;;;;;;;;;6251948;22;20411;-92
2022/01/11 05:06:41;;;;;;;53.40;23.65;;;;;;;;;;6251607;22;20018;-92
2022/01/11 05:09:07;;;;;;;47.08;23.73;;;;;;;;;;6252123;22;20022;-92
2022/01/11 05:11:34;;;;;;;49.30;21.92;;;;;;;;;;6250679;22;20102;-91
2022/01/11 05:14:03;;;;;;;46.33;21.20;;;;;;;;;;6266395;22;20067;-95
2022/01/11 05:16:32;;;;;;;42.75;20.05;;;;;;;;;;6264596;22;20019;-95
2022/01/11 05:18:59;;;;;;;38.15;20.38;;;;;;;;;;6238613;22;20039;-94
2022/01/11 05:21:25;;;;;;;49.30;22.30;;;;;;;;;;6264819;22;20015;-95
2022/01/11 05:23:51;;;;;;;44.38;21.05;;;;;;;;;;6265525;22;20030;-94
2022/01/11 05:26:18;;;;;;;52.67;20.52;;;;;;;;;;6261406;22;20018;-93
2022/01/11 05:28:51;;;;;;;43.17;21.52;;;;;;;;;;6290379;22;20547;-94
2022/01/11 05:31:17;;;;;;;36.70;20.97;;;;;;;;;;6242920;22;20016;-94
2022/01/11 05:33:43;;;;;;;44.78;20.40;;;;;;;;;;6266776;22;20030;-94
2022/01/11 05:36:09;;;;;;;41.20;21.38;;;;;;;;;;6265685;22;20069;-95
2022/01/11 05:38:35;;;;;;;44.33;22.73;;;;;;;;;;6285332;22;20012;-94
2022/01/11 05:41:01;;;;;;;49.40;20.25;;;;;;;;;;6284806;22;20026;-94
2022/01/11 05:43:27;;;;;;;39.60;20.05;;;;;;;;;;6260031;22;20019;-94
2022/01/11 05:45:53;;;;;;;32.25;17.20;;;;;;;;;;6263571;22;20047;-94
2022/01/11 05:48:20;;;;;;;40.03;20.83;;;;;;;;;;6237156;23;20453;-93
2022/01/11 05:50:46;;;;;;;42.13;19.77;;;;;;;;;;6228577;23;20016;-93
2022/01/11 05:53:12;;;;;;;36.45;19.70;;;;;;;;;;6227181;23;20020;-94
2022/01/11 05:55:39;;;;;;;36.35;18.83;;;;;;;;;;6227033;23;20438;-94
2022/01/11 05:58:05;;;;;;;35.85;19.90;;;;;;;;;;6226114;23;20024;-94
2022/01/11 06:00:31;;;;;;;40.83;19.42;;;;;;;;;;6225620;23;20078;-94
2022/01/11 06:02:58;;;;;;;37.72;17.55;;;;;;;;;;6229207;23;20341;-94
2022/01/11 06:05:25;;;;;;;36.78;17.02;;;;;;;;;;6252749;23;20043;-94
2022/01/11 06:07:51;;;;;;;39.70;18.80;;;;;;;;;;6225158;23;20016;-94
2022/01/11 06:10:18;;;;;;;33.70;18.27;;;;;;;;;;6226787;23;20095;-94
2022/01/11 06:12:44;;;;;;;39.30;18.92;;;;;;;;;;6238461;23;20034;-93
2022/01/11 06:15:10;;;;;;;38.42;18.67;;;;;;;;;;6235757;23;20016;-93
2022/01/11 06:17:36;;;;;;;37.47;17.85;;;;;;;;;;6236181;23;20020;-94
2022/01/11 06:20:03;;;;;;;37.35;18.20;;;;;;;;;;6237200;23;20026;-94
2022/01/11 06:22:29;;;;;;;41.95;20.92;;;;;;;;;;6238605;23;20081;-94
2022/01/11 06:24:55;;;;;;;30.67;17.30;;;;;;;;;;6237247;23;20069;-94
2022/01/11 06:27:24;;;;;;;39.42;18.52;;;;;;;;;;6211704;23;20012;-94
2022/01/11 06:29:50;;;;;;;29.88;16.35;;;;;;;;;;6238802;23;20017;-94
2022/01/11 06:32:16;;;;;;;40.53;17.65;;;;;;;;;;6262579;23;20020;-95
2022/01/11 06:34:46;;;;;;;31.33;16.67;;;;;;;;;;6254234;22;20106;-92
2022/01/11 06:37:15;;;;;;;36.33;16.48;;;;;;;;;;6271881;22;20023;-94
2022/01/11 06:40:02;;;;;;;36.45;18.65;;;;;;;;;;6324719;22;20065;-92
2022/01/11 06:42:41;;;;;;;32.80;16.75;;;;;;;;;;6275442;22;20011;-91
2022/01/11 06:45:08;;;;;;;36.53;18.40;;;;;;;;;;6267580;22;20028;-92
2022/01/11 06:47:38;;;;;;;32.40;17.45;;;;;;;;;;6303685;22;20022;-92
2022/01/11 06:50:08;;;;;;;32.63;18.17;;;;;;;;;;6264623;22;20016;-92
2022/01/11 06:52:35;;;;;;;35.88;17.83;;;;;;;;;;6234806;22;20342;-92
2022/01/11 06:55:01;;;;;;;36.28;18.65;;;;;;;;;;6231494;22;20016;-92
2022/01/11 06:57:29;;;;;;;32.70;18.80;;;;;;;;;;6254783;22;20126;-91
2022/01/11 06:59:58;;;;;;;39.10;20.10;;;;;;;;;;6257214;22;20019;-94
2022/01/11 07:02:24;;;;;;;38.17;18.58;;;;;;;;;;6255385;22;20015;-92
2022/01/11 07:04:50;;;;;;;36.65;17.90;;;;;;;;;;6231058;22;20018;-92
2022/01/11 07:07:17;;;;;;;33.47;17.08;;;;;;;;;;6230328;22;20051;-93
2022/01/11 07:09:43;;;;;;;36.80;18.08;;;;;;;;;;6229408;22;20012;-92
2022/01/11 07:12:09;;;;;;;32.67;17.08;;;;;;;;;;6229514;22;20033;-95
2022/01/11 07:14:37;;;;;;;35.30;18.02;;;;;;;;;;6229545;22;20377;-93
2022/01/11 07:17:03;;;;;;;31.92;17.80;;;;;;;;;;6229718;22;20019;-93
2022/01/11 07:19:29;;;;;;;33.15;16.70;;;;;;;;;;6230038;22;20026;-92
2022/01/11 07:21:59;;;;;;;32.50;17.40;;;;;;;;;;6230633;22;20025;-93
2022/01/11 07:24:25;;;;;;;39.63;17.10;;;;;;;;;;6229275;22;20023;-93
2022/01/11 07:26:51;;;;;;;36.78;18.55;;;;;;;;;;6231210;22;20016;-93
2022/01/11 07:29:17;;;;;;;29.95;15.68;;;;;;;;;;6230661;22;20093;-94
2022/01/11 07:31:43;;;;;;;28.77;16.17;;;;;;;;;;6229780;22;20018;-91
2022/01/11 07:34:09;;;;;;;39.70;17.25;;;;;;;;;;6228467;22;20019;-93
2022/01/11 07:36:44;;;;;;;34.97;17.63;;;;;;;;;;6229098;22;20448;-95
2022/01/11 07:39:13;;;;;;;28.70;15.20;;;;;;;;;;6241841;22;20031;-90
2022/01/11 07:41:42;;;;;;;34.03;17.52;;;;;;;;;;6251502;22;20042;-91
2022/01/11 07:44:11;;;;;;;29.35;13.93;;;;;;;;;;6251149;22;20035;-92
2022/01/11 07:49:11;;;;;;;;;;;0.30;99.90;;;;;;6283851;22;20337;-92
2022/01/11 07:51:43;;;;;;;23.90;14.13;;;;;;;;;;6257166;22;19915;-94
2022/01/11 07:54:14;;;;;;;29.42;15.90;;;;;;;;;;6260980;22;20016;-94
2022/01/11 08:02:14;;;;;;;26.30;13.88;;;;;;;;;;6308335;22;20034;-94
2022/01/11 08:04:45;;;;;;;31.70;15.60;;;;;;;;;;6253759;22;20085;-93
2022/01/11 08:07:23;;;;;;;32.25;16.02;;;;;;;;;;6234903;22;20371;-92
2022/01/11 08:09:52;;;;;;;27.40;15.18;;;;;;;;;;6223865;23;20039;-92
2022/01/11 08:12:18;;;;;;;35.53;16.25;;;;;;;;;;6224645;23;20027;-94
2022/01/11 08:14:48;;;;;;;30.73;15.02;;;;;;;;;;6223754;22;20019;-92
2022/01/11 08:17:15;;;;;;;28.63;14.88;;;;;;;;;;6252631;22;20058;-93
2022/01/11 08:22:17;;;;;;;32.40;15.18;;;;;;;;;;6279904;22;20034;-90
2022/01/11 08:24:44;;;;;;;30.15;16.80;;;;;;;;;;6250345;22;20055;-91
2022/01/11 08:27:11;;;;;;;24.58;15.32;;;;;;;;;;6253064;22;20062;-95
2022/01/11 08:29:42;;;;;;;27.98;14.88;;;;;;;;;;6285442;22;20024;-92
2022/01/11 08:32:09;;;;;;;33.17;15.75;;;;;;;;;;6257796;22;20019;-92
2022/01/11 08:34:35;;;;;;;32.22;15.23;;;;;;;;;;6256996;22;20098;-93
2022/01/11 08:37:01;;;;;;;23.25;13.82;;;;;;;;;;6256866;22;20020;-94
2022/01/11 08:39:27;;;;;;;33.00;14.85;;;;;;;;;;6257137;22;20046;-92
2022/01/11 08:41:54;;;;;;;26.45;14.10;;;;;;;;;;6282746;22;20024;-92
2022/01/11 08:44:20;;;;;;;30.00;16.63;;;;;;;;;;6282433;22;20072;-92
2022/01/11 08:46:47;;;;;;;24.30;13.57;;;;;;;;;;6232523;22;20023;-92
2022/01/11 08:49:13;;;;;;;23.30;13.45;;;;;;;;;;6228208;22;20174;-95
2022/01/11 08:51:40;;;;;;;24.73;14.52;;;;;;;;;;6254083;22;20015;-92
2022/01/11 08:54:06;;;;;;;22.08;12.43;;;;;;;;;;6228299;22;20050;-92
2022/01/11 08:56:33;;;;;;;26.25;15.32;;;;;;;;;;6227465;22;20099;-94
2022/01/11 08:58:59;;;;;;;24.83;15.68;;;;;;;;;;6228190;22;20105;-93
2022/01/11 09:01:31;;;;;;;31.15;15.32;;;;;;;;;;6227729;22;20035;-95
2022/01/11 09:03:57;;;;;;;26.42;14.90;;;;;;;;;;6227268;22;20012;-93
2022/01/11 09:06:23;;;;;;;24.83;13.48;;;;;;;;;;6227440;22;20341;-93
2022/01/11 09:08:50;;;;;;;25.08;14.10;;;;;;;;;;6227430;22;20034;-94
2022/01/11 09:11:16;;;;;;;25.60;13.52;;;;;;;;;;6227404;22;20015;-93
2022/01/11 09:13:42;;;;;;;26.20;13.70;;;;;;;;;;6228280;22;20445;-94
2022/01/11 09:16:11;;;;;;;27.35;13.20;;;;;;;;;;6227709;22;20008;-96
2022/01/11 09:18:37;;;;;;;24.13;14.02;;;;;;;;;;6227815;22;20026;-94
2022/01/11 09:21:04;;;;;;;27.65;13.05;;;;;;;;;;6227749;22;20051;-92
2022/01/11 09:23:30;;;;;;;24.63;13.07;;;;;;;;;;6227455;22;20032;-96
2022/01/11 09:25:57;;;;;;;25.30;13.07;;;;;;;;;;6252533;22;20337;-95
2022/01/11 09:28:23;;;;;;;23.00;12.88;;;;;;;;;;6227434;22;20095;-94
2022/01/11 09:30:50;;;;;;;24.80;12.48;;;;;;;;;;6227879;22;20024;-93
2022/01/11 09:33:16;;;;;;;27.85;13.23;;;;;;;;;;6227822;22;20012;-95
2022/01/11 09:35:42;;;;;;;24.10;12.45;;;;;;;;;;6229059;22;20019;-93
2022/01/11 09:38:08;;;;;;;28.77;15.07;;;;;;;;;;6229201;22;20463;-93
2022/01/11 09:40:35;;;;;;;23.98;14.25;;;;;;;;;;6228506;22;20015;-95
2022/01/11 09:43:01;;;;;;;26.08;14.98;;;;;;;;;;6227071;22;20016;-93
2022/01/11 09:45:27;;;;;;;24.75;13.70;;;;;;;;;;6228582;22;20015;-92
2022/01/11 09:47:53;;;;;;;26.52;11.60;;;;;;;;;;6227175;22;20012;-94
2022/01/11 09:50:19;;;;;;;24.50;12.90;;;;;;;;;;6228750;22;20027;-94
2022/01/11 09:52:45;;;;;;;17.73;10.70;;;;;;;;;;6227371;22;20022;-95
2022/01/11 09:55:13;;;;;;;24.17;13.25;;;;;;;;;;6228747;22;20051;-94
2022/01/11 09:57:40;;;;;;;29.70;14.57;;;;;;;;;;6252508;22;20098;-95
2022/01/11 10:00:07;;;;;;;28.77;15.38;;;;;;;;;;6227395;22;20051;-95
2022/01/11 10:02:33;;;;;;;22.05;13.60;;;;;;;;;;6252831;22;20016;-96
2022/01/11 10:05:01;;;;;;;24.75;13.52;;;;;;;;;;6252951;22;20026;-93
2022/01/11 10:07:31;;;;;;;35.88;14.30;;;;;;;;;;6227258;22;20090;-92
2022/01/11 10:09:58;;;;;;;26.40;13.63;;;;;;;;;;6227352;22;20074;-95
2022/01/11 10:12:24;;;;;;;27.30;15.13;;;;;;;;;;6229181;22;20012;-95
2022/01/11 10:14:55;;;;;;;27.48;13.38;;;;;;;;;;6227502;22;20026;-92
2022/01/11 10:17:21;;;;;;;29.92;13.98;;;;;;;;;;6227421;22;20051;-95
2022/01/11 10:19:49;;;;;;;30.15;15.38;;;;;;;;;;6227625;22;20029;-93
2022/01/11 10:22:17;;;;;;;28.27;13.20;;;;;;;;;;6227882;22;20015;-92
2022/01/11 10:24:44;;;;;;;28.40;15.27;;;;;;;;;;6228551;22;20019;-92
2022/01/11 10:27:24;;;;;;;38.40;16.10;;;;;;;;;;6227842;22;20016;-94
2022/01/11 10:29:51;;;;;;;28.40;15.15;;;;;;;;;;6228061;22;20020;-92
2022/01/11 10:32:17;;;;;;;29.40;15.25;;;;;;;;;;6228352;22;20020;-92
2022/01/11 10:34:47;;;;;;;36.47;17.17;;;;;;;;;;6227423;22;20042;-92
2022/01/11 10:37:14;;;;;;;33.33;15.35;;;;;;;;;;6253363;22;20026;-93
2022/01/11 10:39:41;;;;;;;30.67;14.15;;;;;;;;;;6228364;22;20023;-96
2022/01/11 10:42:23;;;;;;;31.90;16.45;;;;;;;;;;6228222;22;20022;-96
2022/01/11 10:44:52;;;;;;;30.83;15.27;;;;;;;;;;6227233;22;20015;-96
2022/01/11 10:47:29;;;;;;;35.80;16.80;;;;;;;;;;6225634;22;20023;-90
2022/01/11 10:49:57;;;;;;;29.33;15.80;;;;;;;;;;6225580;22;20016;-90
2022/01/11 10:52:25;;;;;;;31.02;16.05;;;;;;;;;;6225630;22;20023;-90
2022/01/11 10:54:51;;;;;;;32.97;16.40;;;;;;;;;;6225450;22;20102;-91
2022/01/11 10:57:19;;;;;;;27.20;14.95;;;;;;;;;;6227918;22;20016;-91
2022/01/11 11:00:03;;;;;;;33.65;17.17;;;;;;;;;;6225418;22;20065;-91
2022/01/11 11:02:29;;;;;;;38.08;18.63;;;;;;;;;;6250870;22;20026;-90
2022/01/11 11:04:58;;;;;;;30.70;16.35;;;;;;;;;;6225986;22;20012;-90
2022/01/11 11:07:26;;;;;;;30.95;15.65;;;;;;;;;;6225716;22;20015;-91
2022/01/11 11:09:52;;;;;;;28.65;15.57;;;;;;;;;;6225718;22;20090;-91
2022/01/11 11:12:19;;;;;;;38.42;17.20;;;;;;;;;;6225408;22;20413;-91
2022/01/11 11:14:49;;;;;;;35.67;17.95;;;;;;;;;;6225793;22;20039;-94
2022/01/11 11:17:25;;;;;;;33.50;17.95;;;;;;;;;;6227612;22;20015;-94
2022/01/11 11:19:56;;;;;;;37.70;18.02;;;;;;;;;;6226351;22;20019;-95
2022/01/11 11:22:22;;;;;;;34.70;18.48;;;;;;;;;;6228292;22;20317;-94
2022/01/11 11:24:48;;;;;;;30.45;16.83;;;;;;;;;;6228042;22;20122;-94
2022/01/11 11:27:15;;;;;;;30.88;17.33;;;;;;;;;;6228118;22;20024;-94
2022/01/11 11:29:42;;;;;;;32.58;16.50;;;;;;;;;;6227093;22;20016;-94
2022/01/11 11:32:08;;;;;;;32.40;15.88;;;;;;;;;;6226695;22;20054;-94
2022/01/11 11:34:35;;;;;;;32.25;15.50;;;;;;;;;;6226737;22;20023;-94
2022/01/11 11:37:05;;;;;;;39.58;19.80;;;;;;;;;;6227466;22;20027;-95
2022/01/11 11:39:31;;;;;;;29.08;14.75;;;;;;;;;;6226015;22;20016;-94
2022/01/11 11:41:59;;;;;;;28.33;14.90;;;;;;;;;;6227199;22;20015;-94
2022/01/11 11:44:26;;;;;;;30.90;17.30;;;;;;;;;;6227813;22;20113;-94
2022/01/11 11:46:54;;;;;;;25.58;13.32;;;;;;;;;;6227754;22;20393;-94
2022/01/11 11:49:38;;;;;;;33.13;16.38;;;1.80;99.90;;;;;;6226485;22;20072;-95
2022/01/11 11:52:23;;;;;;;32.72;16.48;;;;;;;;;;6227057;22;20450;-95
2022/01/11 11:54:53;;;;;;;30.02;16.42;;;;;;;;;;6226309;22;20016;-94
2022/01/11 11:57:21;;;;;;;32.83;16.20;;;;;;;;;;6251182;22;20024;-94
2022/01/11 11:59:58;;;;;;;28.50;14.52;;;;;;;;;;6225335;22;20070;-93
2022/01/11 12:02:38;;;;;;;30.48;16.83;;;;;;;;;;6221900;22;20020;-92
2022/01/11 12:05:05;;;;;;;31.67;15.98;;;;;;;;;;6223209;22;20020;-94
2022/01/11 12:07:43;;;;;;;31.95;15.30;;;;;;;;;;6227742;22;20012;-94
2022/01/11 12:10:14;;;;;;;28.73;14.63;;;;;;;;;;6226431;22;20019;-93
2022/01/11 12:12:41;;;;;;;26.80;14.57;;;;;;;;;;6226343;22;20016;-93
2022/01/11 12:15:23;;;;;;;27.65;16.40;;;;;;;;;;6227203;22;20089;-94
2022/01/11 12:17:49;;;;;;;27.10;14.85;;;;;;;;;;6226568;22;20062;-94
2022/01/11 12:20:34;;;;;;;25.90;13.88;;;;;;;;;;6226242;22;20024;-94
2022/01/11 12:23:00;;;;;;;25.25;14.45;;;;;;;;;;6226143;22;20019;-94
2022/01/11 12:25:30;;;;;;;27.95;15.40;;;;;;;;;;6226666;22;20077;-93
2022/01/11 12:28:03;;;;;;;28.50;14.52;;;;;;;;;;6226474;22;20017;-93
2022/01/11 12:30:32;;;;;;;25.95;14.75;;;;;;;;;;6226737;22;20016;-93
2022/01/11 12:33:35;;;;;;;26.10;14.13;;;;;;;;;;6225960;22;20011;-94
2022/01/11 13:48:21;;;;;;;;;;;;;;;;;;;;;
2022/01/11 13:51:06;;;;;;;19.27;9.98;;;;;;;;;;6064609;23;20022;-92
2022/01/11 13:53:37;;;;;;;25.02;10.45;;;;;;;;;;6039217;23;20051;-93
2022/01/11 14:00:28;;;;;;;19.17;10.10;;;;;;;;;;6085893;22;20401;-92
2022/01/11 14:17:50;;;;;;;;;;;;;;;;;;;;;
2022/01/11 14:24:24;;;;;;;18.15;9.43;;;;;;;;;;6068390;23;20097;-93
2022/01/11 14:29:36;;;;;;;14.77;9.88;;;;;;;;;;6304545;22;20087;-91
2022/01/11 14:32:07;;;;;;;18.02;10.25;;;;;;;;;;6251691;22;20106;-92
2022/01/11 14:34:33;;;;;;;16.65;8.90;;;;;;;;;;6253023;22;20027;-92
2022/01/11 14:37:18;;;;;;;15.98;9.10;;;;;;;;;;6255744;22;20038;-92
2022/01/11 14:39:46;;;;;;;16.55;9.43;;;;;;;;;;6256817;22;20026;-92
2022/01/11 14:42:13;;;;;;;16.00;9.35;;;;;;;;;;6234286;22;20015;-91
2022/01/11 14:44:39;;;;;;;18.60;8.88;;;;;;;;;;6226309;22;20070;-92
2022/01/11 14:47:06;;;;;;;12.88;7.45;;;;;;;;;;6227013;22;20012;-91
2022/01/11 14:49:36;;;;;;;18.73;8.95;;;;;;;;;;6225854;22;20019;-92
2022/01/11 14:52:12;;;;;;;15.77;9.43;;;;;;;;;;6225875;22;20015;-92
2022/01/11 14:54:39;;;;;;;19.73;9.45;;;;;;;;;;6226318;22;20440;-93
2022/01/11 14:57:09;;;;;;;15.80;9.85;;;;;;;;;;6226035;22;20498;-92
2022/01/11 14:59:36;;;;;;;21.00;10.73;;;;;;;;;;6251607;22;20026;-92
2022/01/11 15:02:09;;;;;;;16.52;9.15;;;;;;;;;;6251828;22;20019;-93
2022/01/11 15:04:43;;;;;;;16.60;9.35;;;;;;;;;;6227460;22;20022;-92
2022/01/11 15:07:10;;;;;;;19.90;9.07;;;;;;;;;;6226820;22;20472;-92
2022/01/11 15:09:38;;;;;;;17.13;10.00;;;;;;;;;;6226256;22;20016;-93
2022/01/11 15:12:11;;;;;;;13.75;8.45;;;;;;;;;;6251567;22;20023;-92
2022/01/11 15:14:39;;;;;;;18.52;9.63;;;;;;;;;;6226554;22;20023;-92
2022/01/11 15:17:06;;;;;;;14.63;9.57;;;;;;;;;;6226082;22;20037;-92
2022/01/11 15:19:32;;;;;;;18.33;8.23;;;;;;;;;;6225745;22;20098;-93
2022/01/11 15:21:59;;;;;;;20.40;9.38;;;;;;;;;;6226322;22;20046;-93
2022/01/11 15:24:25;;;;;;;15.98;9.15;;;;;;;;;;6227490;22;20015;-93
2022/01/11 15:26:51;;;;;;;19.10;10.50;;;;;;;;;;6252579;22;20016;-92
2022/01/11 15:29:19;;;;;;;19.52;8.80;;;;;;;;;;6273087;22;20376;-92
2022/01/11 15:31:46;;;;;;;15.43;10.10;;;;;;;;;;6251419;22;20016;-94
2022/01/11 15:34:12;;;;;;;13.65;8.73;;;;;;;;;;6251629;22;20012;-95
2022/01/11 15:36:38;;;;;;;20.42;10.45;;;;;;;;;;6251629;22;20024;-93
2022/01/11 15:39:04;;;;;;;17.35;9.07;;;;;;;;;;6251452;22;20011;-92
2022/01/11 15:41:31;;;;;;;16.98;9.27;;;;;;;;;;6250462;22;20019;-93
2022/01/11 15:43:58;;;;;;;18.35;9.25;;;;;;;;;;6251473;22;20034;-93
2022/01/11 15:46:25;;;;;;;16.65;9.38;;;;;;;;;;6251988;22;20050;-92
2022/01/11 15:48:51;;;;;;;13.85;8.77;;;;;;;;;;6251321;22;20073;-93
2022/01/11 15:51:18;;;;;;;22.00;9.18;;;;;;;;;;6250911;22;20015;-93
2022/01/11 15:53:44;;;;;;;18.40;10.15;;;;;;;;;;6250889;22;20514;-92
2022/01/11 15:56:10;;;;;;;17.08;9.52;;;;;;;;;;6251163;22;20103;-92
2022/01/11 15:58:36;;;;;;;17.08;9.23;;;;;;;;;;6250406;22;20115;-92
2022/01/11 16:01:02;;;;;;;17.92;9.65;;;;;;;;;;6250364;22;20015;-92
2022/01/11 16:03:29;;;;;;;19.73;10.90;;;;;;;;;;6251084;22;20016;-93
2022/01/11 16:05:55;;;;;;;22.17;10.52;;;;;;;;;;6250936;22;20500;-92
2022/01/11 16:08:22;;;;;;;20.60;11.25;;;;;;;;;;6251430;22;20012;-92
2022/01/11 16:10:48;;;;;;;17.05;10.65;;;;;;;;;;6277240;22;20081;-92
2022/01/11 16:13:14;;;;;;;23.85;10.57;;;;;;;;;;6251405;22;20018;-92
2022/01/11 16:15:41;;;;;;;21.17;11.80;;;;;;;;;;6251385;22;20022;-93